Time;durP1;ratioP1;P1;durP2;ratioP2;P2;SDS_P1;SDS_P2;PMS_P1;PMS_P2;Temp;Humidity;BMP_temperature;BMP_pressure;BME280_temperature;BME280_humidity;BME280_pressure;Samples;Min_cycle;Max_cycle;Signal;HPM_P1;HPM_P2
2022/11/10 00:02:24;;;;;;;32.57;17.03;;;;;;;-144.22;100.00;60274.75;6268794;28;20699;-41
2022/11/10 00:05:45;;;;;;;28.30;15.63;;;;;;;-144.22;100.00;60274.75;6264632;28;20232;-41
2022/11/10 00:09:06;;;;;;;31.00;15.73;;;;;;;-144.22;100.00;60274.75;6262791;28;20311;-41
2022/11/10 00:12:26;;;;;;;29.70;15.63;;;;;;;-144.22;100.00;60274.75;6264765;28;20582;-41
2022/11/10 00:19:27;;;;;;;32.77;17.03;;;;;;;-144.22;100.00;60274.75;6268724;28;20243;-41
2022/11/10 00:22:48;;;;;;;36.03;17.30;;;;;;;-144.22;100.00;60274.75;6271779;28;20230;-41
2022/11/10 00:26:15;;;;;;;32.77;16.37;;;;;;;-144.22;100.00;60274.75;6267428;28;20236;-41
2022/11/10 00:29:36;;;;;;;31.00;16.40;;;;;;;-144.22;100.00;60274.75;6267522;28;20232;-41
2022/11/10 00:32:56;;;;;;;33.70;16.27;;;;;;;-144.22;100.00;60274.75;6266379;28;20694;-41
2022/11/10 00:36:17;;;;;;;36.40;17.47;;;;;;;-144.22;100.00;60274.75;6266013;28;20743;-41
2022/11/10 00:39:37;;;;;;;30.70;16.00;;;;;;;-144.22;100.00;60274.75;6265061;28;20594;-41
2022/11/10 00:42:58;;;;;;;30.43;17.17;;;;;;;-144.22;100.00;60274.75;6265234;28;20235;-41
2022/11/10 00:46:19;;;;;;;27.20;14.97;;;;;;;-144.22;100.00;60274.75;6265700;28;20231;-42
2022/11/10 00:49:39;;;;;;;34.70;17.27;;;;;;;-144.22;100.00;60274.75;6263773;28;20272;-41
2022/11/10 00:53:00;;;;;;;32.33;17.37;;;;;;;-144.22;100.00;60274.75;6265160;28;20233;-41
2022/11/10 00:56:21;;;;;;;33.43;18.70;;;;;;;-144.22;100.00;60274.75;6265769;28;20230;-41
2022/11/10 00:59:42;;;;;;;33.27;16.03;;;;;;;-144.22;100.00;60274.75;6266683;28;20271;-41
2022/11/10 01:03:02;;;;;;;34.30;18.23;;;;;;;-144.22;100.00;60274.75;6267560;28;20232;-42
2022/11/10 01:06:23;;;;;;;34.77;18.00;;;;;;;-144.22;100.00;60274.75;6264343;28;20735;-41
2022/11/10 01:09:44;;;;;;;34.23;18.00;;;;;;;-144.22;100.00;60274.75;6264800;28;20228;-41
2022/11/10 01:13:04;;;;;;;31.30;17.73;;;;;;;-144.22;100.00;60274.75;6264601;28;20233;-41
2022/11/10 01:16:30;;;;;;;33.33;16.97;;;;;;;-144.22;100.00;60274.75;6264499;28;20696;-41
2022/11/10 01:19:51;;;;;;;30.47;15.37;;;;;;;-144.22;100.00;60274.75;6263695;28;20234;-41
2022/11/10 01:23:11;;;;;;;29.63;15.57;;;;;;;-144.22;100.00;60274.75;6259796;28;20322;-41
2022/11/10 01:26:32;;;;;;;27.57;16.30;;;;;;;-144.22;100.00;60274.75;6265072;28;20256;-41
2022/11/10 01:29:53;;;;;;;29.63;15.83;;;;;;;-144.22;100.00;60274.75;6269358;28;20230;-41
2022/11/10 01:33:16;;;;;;;28.33;16.03;;;;;;;-144.22;100.00;60274.75;6269419;28;20205;-41
2022/11/10 01:36:37;;;;;;;32.50;17.57;;;;;;;-144.22;100.00;60274.75;6268394;28;20755;-41
2022/11/10 01:39:58;;;;;;;25.23;15.43;;;;;;;-144.22;100.00;60274.75;6271133;28;20258;-41
2022/11/10 01:43:18;;;;;;;24.67;14.63;;;;;;;-144.22;100.00;60274.75;6269233;28;20233;-41
2022/11/10 01:46:40;;;;;;;30.20;15.17;;;;;;;-144.22;100.00;60274.75;6270052;28;20603;-41
2022/11/10 01:50:01;;;;;;;28.53;15.07;;;;;;;-144.22;100.00;60274.75;6268867;28;20721;-41
2022/11/10 01:53:25;;;;;;;41.07;18.43;;;;;;;-144.22;100.00;60274.75;6272798;28;20261;-41
2022/11/10 01:56:50;;;;;;;35.80;16.90;;;;;;;-144.22;100.00;60274.75;6271005;28;20601;-41
2022/11/10 02:00:11;;;;;;;32.67;17.07;;;;;;;-144.22;100.00;60274.75;6268502;28;20227;-41
2022/11/10 02:03:48;;;;;;;32.40;17.13;;;;;;;-144.22;100.00;60274.75;6269081;28;20693;-41
2022/11/10 02:07:10;;;;;;;40.57;17.83;;;;;;;-144.22;100.00;60274.75;6269530;28;20234;-41
2022/11/10 02:10:31;;;;;;;31.60;16.53;;;;;;;-144.22;100.00;60274.75;6270567;28;20250;-41
2022/11/10 02:13:52;;;;;;;24.63;14.63;;;;;;;-144.22;100.00;60274.75;6270652;28;20232;-41
2022/11/10 02:17:13;;;;;;;29.50;15.83;;;;;;;-144.22;100.00;60274.75;6269311;28;20285;-41
2022/11/10 02:20:34;;;;;;;29.37;15.60;;;;;;;-144.22;100.00;60274.75;6268758;28;20234;-41
2022/11/10 02:23:54;;;;;;;27.57;15.53;;;;;;;-144.22;100.00;60274.75;6268814;28;20325;-41
2022/11/10 02:27:15;;;;;;;29.27;14.83;;;;;;;-144.22;100.00;60274.75;6265533;28;20908;-41
2022/11/10 02:30:35;;;;;;;26.73;16.30;;;;;;;-144.22;100.00;60274.75;6267404;28;20250;-41
2022/11/10 02:33:56;;;;;;;30.00;14.30;;;;;;;-144.22;100.00;60274.75;6267700;28;20318;-41
2022/11/10 02:37:17;;;;;;;23.10;14.83;;;;;;;-144.22;100.00;60274.75;6267565;28;20688;-41
2022/11/10 02:40:38;;;;;;;30.60;16.83;;;;;;;-144.22;100.00;60274.75;6270120;28;20251;-41
2022/11/10 02:43:59;;;;;;;24.47;14.20;;;;;;;-144.22;100.00;60274.75;6268466;28;20230;-41
2022/11/10 02:47:19;;;;;;;27.13;15.30;;;;;;;-144.22;100.00;60274.75;6267723;28;20650;-41
2022/11/10 02:50:40;;;;;;;21.10;13.33;;;;;;;-144.22;100.00;60274.75;6267006;28;20728;-41
2022/11/10 02:54:00;;;;;;;18.67;13.37;;;;;;;-144.22;100.00;60274.75;6272201;28;20231;-41
2022/11/10 02:57:21;;;;;;;18.33;12.83;;;;;;;-144.22;100.00;60274.75;6266802;28;20692;-41
2022/11/10 03:00:42;;;;;;;18.80;12.50;;;;;;;-144.22;100.00;60274.75;6267643;28;20227;-41
2022/11/10 03:04:03;;;;;;;17.80;13.50;;;;;;;-144.22;100.00;60274.75;6264117;28;20240;-42
2022/11/10 03:07:24;;;;;;;16.50;12.00;;;;;;;-144.22;100.00;60274.75;6269725;28;20241;-41
2022/11/10 03:10:44;;;;;;;18.13;11.90;;;;;;;-144.22;100.00;60274.75;6267324;28;20630;-41
2022/11/10 03:14:05;;;;;;;19.30;13.03;;;;;;;-144.22;100.00;60274.75;6270137;28;20819;-41
2022/11/10 03:17:27;;;;;;;20.50;13.07;;;;;;;-144.22;100.00;60274.75;6267314;28;20227;-42
2022/11/10 03:20:48;;;;;;;20.10;12.60;;;;;;;-144.22;100.00;60274.75;6267590;28;20700;-41
2022/11/10 03:24:09;;;;;;;19.10;13.00;;;;;;;-144.22;100.00;60274.75;6273576;28;20294;-41
2022/11/10 03:27:29;;;;;;;19.27;12.30;;;;;;;-144.22;100.00;60274.75;6266202;28;20224;-41
2022/11/10 03:30:50;;;;;;;19.13;12.57;;;;;;;-144.22;100.00;60274.75;6267191;28;20229;-41
2022/11/10 03:34:11;;;;;;;19.10;12.60;;;;;;;-144.22;100.00;60274.75;6265709;28;20237;-41
2022/11/10 03:37:31;;;;;;;19.80;13.60;;;;;;;-144.22;100.00;60274.75;6270203;28;20269;-41
2022/11/10 03:40:52;;;;;;;16.00;12.00;;;;;;;-144.22;100.00;60274.75;6258170;28;20237;-41
2022/11/10 03:44:32;;;;;;;16.23;11.37;;;;;;;-144.22;100.00;60274.75;6269573;28;20219;-41
2022/11/10 03:47:53;;;;;;;14.43;11.10;;;;;;;-144.22;100.00;60274.75;6267894;28;20234;-41
2022/11/10 03:51:14;;;;;;;18.13;12.07;;;;;;;-144.22;100.00;60274.75;6268479;28;20225;-41
2022/11/10 03:54:35;;;;;;;14.87;11.10;;;;;;;-144.22;100.00;60274.75;6267069;28;20769;-41
2022/11/10 03:58:01;;;;;;;14.73;10.50;;;;;;;-144.22;100.00;60274.75;6266743;28;20246;-41
2022/11/10 04:01:22;;;;;;;16.83;12.63;;;;;;;-144.22;100.00;60274.75;6256687;28;20227;-41
2022/11/10 04:15:44;;;;;;;17.33;12.27;;;;;;;-144.22;100.00;60274.75;6267129;28;20267;-41
2022/11/10 04:19:05;;;;;;;15.57;11.57;;;;;;;-144.22;100.00;60274.75;6266307;28;20229;-42
2022/11/10 04:29:47;;;;;;;17.03;12.57;;;;;;;-144.22;100.00;60274.75;6265721;28;20234;-41
2022/11/10 04:33:08;;;;;;;18.57;13.57;;;;;;;-144.22;100.00;60274.75;6266642;28;20239;-42
2022/11/10 04:36:30;;;;;;;18.70;13.57;;;;;;;-144.22;100.00;60274.75;6264531;28;20226;-42
2022/11/10 04:39:51;;;;;;;19.17;13.30;;;;;;;-144.22;100.00;60274.75;6264762;28;20263;-42
2022/11/10 04:43:12;;;;;;;18.37;13.00;;;;;;;-144.22;100.00;60274.75;6265363;28;20226;-42
2022/11/10 04:46:39;;;;;;;19.93;13.97;;;;;;;-144.22;100.00;60274.75;6264312;28;20513;-41
2022/11/10 04:49:59;;;;;;;18.77;13.23;;;;;;;-144.22;100.00;60274.75;6267416;28;20227;-41
2022/11/10 04:53:20;;;;;;;17.67;12.93;;;;;;;-144.22;100.00;60274.75;6268195;28;20306;-42
2022/11/10 04:56:41;;;;;;;23.37;14.60;;;;;;;-144.22;100.00;60274.75;6267510;28;20222;-41
2022/11/10 05:00:03;;;;;;;20.60;13.27;;;;;;;-144.22;100.00;60274.75;6264165;28;20219;-42
2022/11/10 05:03:25;;;;;;;18.70;12.77;;;;;;;-144.22;100.00;60274.75;6266895;28;20931;-42
2022/11/10 05:06:46;;;;;;;16.93;11.73;;;;;;;-144.22;100.00;60274.75;6265017;28;20766;-41
2022/11/10 05:10:06;;;;;;;18.07;12.23;;;;;;;-144.22;100.00;60274.75;6265500;28;20227;-41
2022/11/10 05:13:27;;;;;;;19.30;12.87;;;;;;;-144.22;100.00;60274.75;6264352;28;20279;-41
2022/11/10 05:16:47;;;;;;;17.77;11.53;;;;;;;-144.22;100.00;60274.75;6263651;28;20245;-41
2022/11/10 05:20:09;;;;;;;23.00;12.10;;;;;;;-144.22;100.00;60274.75;6265495;28;22198;-41
2022/11/10 05:23:39;;;;;;;20.20;12.60;;;;;;;-144.22;100.00;60274.75;6268837;28;20746;-41
2022/11/10 05:27:00;;;;;;;21.83;13.10;;;;;;;-144.22;100.00;60274.75;6265685;28;20236;-41
2022/11/10 05:30:20;;;;;;;19.53;12.07;;;;;;;-144.22;100.00;60274.75;6264841;28;20678;-41
2022/11/10 05:33:41;;;;;;;20.67;13.17;;;;;;;-144.22;100.00;60274.75;6266082;28;20241;-41
2022/11/10 05:37:01;;;;;;;22.43;13.17;;;;;;;-144.22;100.00;60274.75;6263854;28;20236;-41
2022/11/10 05:40:22;;;;;;;24.20;13.80;;;;;;;-144.22;100.00;60274.75;6264581;28;20246;-41
2022/11/10 05:43:43;;;;;;;27.10;14.50;;;;;;;-144.22;100.00;60274.75;6264307;28;20231;-41
2022/11/10 05:47:03;;;;;;;29.03;15.23;;;;;;;-144.22;100.00;60274.75;6271605;28;20238;-41
2022/11/10 05:50:25;;;;;;;24.33;13.53;;;;;;;-144.22;100.00;60274.75;6263829;28;20458;-41
2022/11/10 05:53:45;;;;;;;21.90;11.77;;;;;;;-144.22;100.00;60274.75;6263708;28;20223;-41
2022/11/10 05:57:06;;;;;;;18.03;11.23;;;;;;;-144.22;100.00;60274.75;6265259;28;20249;-41
2022/11/10 06:00:29;;;;;;;16.03;10.77;;;;;;;-144.22;100.00;60274.75;6263973;28;20716;-41
2022/11/10 06:03:49;;;;;;;11.97;8.70;;;;;;;-144.22;100.00;60274.75;6268026;28;20278;-41
2022/11/10 06:07:10;;;;;;;11.43;8.20;;;;;;;-144.22;100.00;60274.75;6262984;28;20235;-41
2022/11/10 06:10:32;;;;;;;9.80;7.30;;;;;;;-144.22;100.00;60274.75;6266851;28;20616;-41
2022/11/10 06:13:53;;;;;;;9.07;6.93;;;;;;;-144.22;100.00;60274.75;6267532;28;20547;-41
2022/11/10 06:17:14;;;;;;;6.30;5.47;;;;;;;-144.22;100.00;60274.75;6268393;28;20351;-41
2022/11/10 06:20:35;;;;;;;5.97;5.30;;;;;;;-144.22;100.00;60274.75;6270184;28;20230;-42
2022/11/10 06:23:56;;;;;;;5.97;4.57;;;;;;;-144.22;100.00;60274.75;6269091;28;20223;-42
2022/11/10 06:27:16;;;;;;;5.93;4.77;;;;;;;-144.22;100.00;60274.75;6267412;28;20322;-42
2022/11/10 06:30:37;;;;;;;5.37;3.93;;;;;;;-144.22;100.00;60274.75;6267833;28;20602;-42
2022/11/10 06:33:58;;;;;;;5.60;4.13;;;;;;;-144.22;100.00;60274.75;6270188;28;20242;-42
2022/11/10 06:37:19;;;;;;;3.93;3.53;;;;;;;-144.22;100.00;60274.75;6269320;28;20231;-41
2022/11/10 06:40:40;;;;;;;4.67;4.00;;;;;;;-144.22;100.00;60274.75;6267268;28;20227;-41
2022/11/10 06:44:00;;;;;;;5.17;3.90;;;;;;;-144.22;100.00;60274.75;6268877;28;20223;-41
2022/11/10 06:47:21;;;;;;;4.20;3.57;;;;;;;-144.22;100.00;60274.75;6267526;28;20235;-42
2022/11/10 06:50:42;;;;;;;5.20;4.00;;;;;;;-144.22;100.00;60274.75;6265960;28;20235;-41
2022/11/10 06:54:03;;;;;;;4.93;3.67;;;;;;;-144.22;100.00;60274.75;6270956;28;20238;-41
2022/11/10 06:57:23;;;;;;;4.23;3.83;;;;;;;-144.22;100.00;60274.75;6266846;28;20698;-42
2022/11/10 07:00:44;;;;;;;5.50;4.33;;;;;;;-144.22;100.00;60274.75;6270944;28;20254;-42
2022/11/10 07:04:05;;;;;;;4.37;3.80;;;;;;;-144.22;100.00;60274.75;6266760;28;20227;-42
2022/11/10 07:07:39;;;;;;;3.97;3.57;;;;;;;-144.22;100.00;60274.75;6268213;28;20595;-41
2022/11/10 07:11:00;;;;;;;3.57;3.27;;;;;;;-144.22;100.00;60274.75;6251998;28;20226;-41
2022/11/10 07:14:20;;;;;;;3.47;3.13;;;;;;;-144.22;100.00;60274.75;6268965;28;20223;-41
2022/11/10 07:17:41;;;;;;;3.23;2.93;;;;;;;-144.22;100.00;60274.75;6266585;28;20236;-41
2022/11/10 07:21:04;;;;;;;2.73;2.53;;;;;;;-144.22;100.00;60274.75;6267013;28;20231;-41
2022/11/10 07:24:25;;;;;;;2.90;2.70;;;;;;;-144.22;100.00;60274.75;6269284;28;20224;-42
2022/11/10 07:27:45;;;;;;;2.53;2.33;;;;;;;-144.22;100.00;60274.75;6268030;28;20229;-41
2022/11/10 07:31:06;;;;;;;3.50;2.10;;;;;;;-144.22;100.00;60274.75;6265517;28;20730;-42
2022/11/10 07:34:27;;;;;;;2.63;2.30;;;;;;;-144.22;100.00;60274.75;6266000;28;20236;-41
2022/11/10 07:37:47;;;;;;;2.60;2.40;;;;;;;-144.22;100.00;60274.75;6265996;28;20659;-42
2022/11/10 07:41:08;;;;;;;3.20;2.93;;;;;;;-144.22;100.00;60274.75;6267501;28;20232;-42
2022/11/10 07:44:29;;;;;;;3.07;2.73;;;;;;;-144.22;100.00;60274.75;6265916;28;20862;-42
2022/11/10 07:47:50;;;;;;;3.03;2.17;;;;;;;-144.22;100.00;60274.75;6267361;28;20237;-42
2022/11/10 07:51:11;;;;;;;2.87;2.57;;;;;;;-144.22;100.00;60274.75;6265025;28;20310;-43
2022/11/10 07:54:31;;;;;;;2.23;2.03;;;;;;;-144.22;100.00;60274.75;6269259;28;20235;-42
2022/11/10 07:57:57;;;;;;;2.87;2.63;;;;;;;-144.22;100.00;60274.75;6257887;28;20238;-42
2022/11/10 08:01:17;;;;;;;2.57;2.33;;;;;;;-144.22;100.00;60274.75;6264440;28;20682;-43
2022/11/10 08:04:38;;;;;;;2.20;2.00;;;;;;;-144.22;100.00;60274.75;6265566;28;20233;-42
2022/11/10 08:07:59;;;;;;;2.33;2.13;;;;;;;-144.22;100.00;60274.75;6264203;28;20234;-43
2022/11/10 08:11:20;;;;;;;2.70;2.50;;;;;;;-144.22;100.00;60274.75;6264627;28;20229;-44
2022/11/10 08:14:40;;;;;;;2.50;2.30;;;;;;;-144.22;100.00;60274.75;6268002;28;20237;-42
2022/11/10 08:18:06;;;;;;;2.47;2.27;;;;;;;-144.22;100.00;60274.75;6265055;28;20233;-42
2022/11/10 08:21:27;;;;;;;3.10;2.77;;;;;;;-144.22;100.00;60274.75;6267664;28;20264;-43
2022/11/10 08:24:47;;;;;;;1.80;1.70;;;;;;;-144.22;100.00;60274.75;6265857;28;20241;-42
2022/11/10 08:28:08;;;;;;;2.00;1.80;;;;;;;-144.22;100.00;60274.75;6265605;28;20230;-42
2022/11/10 08:31:32;;;;;;;2.23;2.03;;;;;;;-144.22;100.00;60274.75;6265775;28;20234;-43
2022/11/10 08:34:53;;;;;;;2.40;2.20;;;;;;;-144.22;100.00;60274.75;6265759;28;20323;-42
2022/11/10 08:38:18;;;;;;;1.70;1.60;;;;;;;-144.22;100.00;60274.75;6263156;28;20242;-42
2022/11/10 08:41:39;;;;;;;1.90;1.80;;;;;;;-144.22;100.00;60274.75;6264446;28;20558;-43
2022/11/10 08:45:00;;;;;;;2.57;2.37;;;;;;;-144.22;100.00;60274.75;6266764;28;20324;-42
2022/11/10 08:48:20;;;;;;;2.43;2.23;;;;;;;-144.22;100.00;60274.75;6264816;28;20242;-42
2022/11/10 08:51:41;;;;;;;2.40;2.20;;;;;;;-144.22;100.00;60274.75;6268440;28;20246;-43
2022/11/10 08:55:02;;;;;;;2.20;2.00;;;;;;;-144.22;100.00;60274.75;6263009;28;20229;-42
2022/11/10 08:58:23;;;;;;;2.03;1.83;;;;;;;-144.22;100.00;60274.75;6265484;28;20242;-42
2022/11/10 09:01:43;;;;;;;2.40;2.20;;;;;;;-144.22;100.00;60274.75;6267069;28;20694;-43
2022/11/10 09:05:05;;;;;;;1.90;1.80;;;;;;;-144.22;100.00;60274.75;6263754;28;20239;-42
2022/11/10 09:08:27;;;;;;;2.20;2.00;;;;;;;-144.22;100.00;60274.75;6262987;28;20650;-42
2022/11/10 09:11:48;;;;;;;2.00;1.90;;;;;;;-144.22;100.00;60274.75;6263530;28;20223;-42
2022/11/10 09:15:10;;;;;;;1.80;1.70;;;;;;;-144.22;100.00;60274.75;6263991;28;20226;-42
2022/11/10 09:18:31;;;;;;;1.90;1.80;;;;;;;-144.22;100.00;60274.75;6263881;28;20237;-43
2022/11/10 09:21:52;;;;;;;2.00;1.90;;;;;;;-144.22;100.00;60274.75;6263502;28;20651;-42
2022/11/10 09:25:12;;;;;;;2.07;1.97;;;;;;;-144.22;100.00;60274.75;6267182;28;20222;-43
2022/11/10 09:28:33;;;;;;;1.97;1.87;;;;;;;-144.22;100.00;60274.75;6264219;28;20237;-42
2022/11/10 09:31:53;;;;;;;1.70;1.60;;;;;;;-144.22;100.00;60274.75;6265744;28;20231;-42
2022/11/10 09:35:14;;;;;;;1.70;1.60;;;;;;;-144.22;100.00;60274.75;6264690;28;20321;-43
2022/11/10 09:38:35;;;;;;;2.03;1.60;;;;;;;-144.22;100.00;60274.75;6264289;28;20264;-42
2022/11/10 09:41:56;;;;;;;2.13;1.77;;;;;;;-144.22;100.00;60274.75;6263097;28;20230;-42
2022/11/10 09:45:25;;;;;;;2.17;1.97;;;;;;;-144.22;100.00;60274.75;6263281;28;20223;-44
2022/11/10 09:49:00;;;;;;;1.73;1.63;;;;;;;-144.22;100.00;60274.75;6270365;28;20227;-43
2022/11/10 09:52:24;;;;;;;2.47;1.50;;;;;;;-144.22;100.00;60274.75;6271385;28;20234;-42
2022/11/10 09:55:49;;;;;;;2.03;1.70;;;;;;;-144.22;100.00;60274.75;6267951;28;20596;-42
2022/11/10 09:59:18;;;;;;;2.27;2.07;;;;;;;-144.22;100.00;60274.75;6268173;28;20227;-42
2022/11/10 10:02:44;;;;;;;1.83;1.73;;;;;;;-144.22;100.00;60274.75;6271830;28;20248;-42
2022/11/10 10:06:11;;;;;;;2.57;2.07;;;;;;;-144.22;100.00;60274.75;6268558;28;20262;-42
2022/11/10 10:09:41;;;;;;;2.53;1.93;;;;;;;-144.22;100.00;60274.75;6267727;28;20230;-42
2022/11/10 10:13:22;;;;;;;2.40;2.20;;;;;;;-144.22;100.00;60274.75;6271810;28;20239;-42
2022/11/10 10:16:51;;;;;;;2.33;2.13;;;;;;;-144.22;100.00;60274.75;6270915;28;20321;-42
2022/11/10 10:20:25;;;;;;;2.10;1.73;;;;;;;-144.22;100.00;60274.75;6270728;28;20686;-42
2022/11/10 10:23:58;;;;;;;2.00;1.80;;;;;;;-144.22;100.00;60274.75;6271980;28;20305;-43
2022/11/10 10:27:37;;;;;;;1.90;1.80;;;;;;;-144.22;100.00;60274.75;6267440;28;20285;-42
2022/11/10 10:31:19;;;;;;;1.50;1.40;;;;;;;-144.22;100.00;60274.75;6266407;28;20231;-42
2022/11/10 10:34:41;;;;;;;1.50;1.40;;;;;;;-144.22;100.00;60274.75;6268214;28;20223;-42
2022/11/10 10:38:04;;;;;;;1.93;1.83;;;;;;;-144.22;100.00;60274.75;6268162;28;20239;-42
2022/11/10 10:41:28;;;;;;;1.70;1.60;;;;;;;-144.22;100.00;60274.75;6265805;28;20227;-43
2022/11/10 10:45:27;;;;;;;2.10;1.67;;;;;;;-144.22;100.00;60274.75;6268307;28;20691;-42
2022/11/10 10:49:16;;;;;;;1.77;1.60;;;;;;;-144.22;100.00;60274.75;6268962;28;20242;-42
2022/11/10 10:53:20;;;;;;;2.87;1.63;;;;;;;-144.22;100.00;60274.75;6268065;28;20235;-42
2022/11/10 10:56:41;;;;;;;1.40;1.30;;;;;;;-144.22;100.00;60274.75;6269596;28;20230;-44
2022/11/10 11:00:32;;;;;;;1.40;1.30;;;;;;;-144.22;100.00;60274.75;6267549;28;20231;-44
2022/11/10 11:03:52;;;;;;;1.30;1.20;;;;;;;-144.22;100.00;60274.75;6170021;28;20266;-44
2022/11/10 11:07:22;;;;;;;2.30;1.57;;;;;;;-144.22;100.00;60274.75;6167014;28;20239;-44
2022/11/10 11:10:45;;;;;;;1.50;1.40;;;;;;;-144.22;100.00;60274.75;6168632;28;20264;-42
2022/11/10 11:14:23;;;;;;;2.37;1.77;;;;;;;-144.22;100.00;60274.75;6170819;28;20233;-43
2022/11/10 11:18:14;;;;;;;2.00;1.80;;;;;;;-144.22;100.00;60274.75;6166891;28;20241;-43
2022/11/10 11:21:55;;;;;;;1.70;1.60;;;;;;;-144.22;100.00;60274.75;6116881;28;20274;-43
2022/11/10 11:25:22;;;;;;;2.03;1.70;;;;;;;-144.22;100.00;60274.75;6120823;29;20235;-43
2022/11/10 11:29:01;;;;;;;2.33;2.13;;;;;;;-144.22;100.00;60274.75;6119565;29;20235;-42
2022/11/10 11:32:41;;;;;;;2.70;2.20;;;;;;;-144.22;100.00;60274.75;6121134;29;20325;-42
2022/11/10 11:36:29;;;;;;;2.53;1.97;;;;;;;-144.22;100.00;60274.75;6119257;28;20439;-42
2022/11/10 11:40:07;;;;;;;2.10;2.00;;;;;;;-144.22;100.00;60274.75;6143789;28;20237;-43
2022/11/10 11:43:55;;;;;;;2.10;1.90;;;;;;;-144.22;100.00;60274.75;6166455;28;20317;-43
2022/11/10 11:47:41;;;;;;;2.10;1.90;;;;;;;-144.22;100.00;60274.75;6168904;28;20237;-42
2022/11/10 11:51:27;;;;;;;2.77;2.47;;;;;;;-144.22;100.00;60274.75;6144018;28;20749;-42
2022/11/10 11:55:06;;;;;;;3.30;2.00;;;;;;;-144.22;100.00;60274.75;6134304;28;20234;-42
2022/11/10 11:58:53;;;;;;;2.10;1.90;;;;;;;-144.22;100.00;60274.75;6204412;28;20259;-42
2022/11/10 12:02:32;;;;;;;1.80;1.67;;;;;;;-144.22;100.00;60274.75;6219733;28;20951;-44
2022/11/10 12:06:33;;;;;;;2.43;1.90;;;;;;;-144.22;100.00;60274.75;6219380;28;20235;-42
2022/11/10 12:10:35;;;;;;;1.90;1.70;;;;;;;-144.22;100.00;60274.75;6101713;28;20233;-43
2022/11/10 12:14:15;;;;;;;2.40;1.77;;;;;;;-144.22;100.00;60274.75;6209501;28;20631;-42
2022/11/10 12:18:08;;;;;;;2.97;2.63;;;;;;;-144.22;100.00;60274.75;6218432;28;20231;-42
2022/11/10 12:21:48;;;;;;;2.03;1.80;;;;;;;-144.22;100.00;60274.75;6218430;28;20236;-42
2022/11/10 12:25:25;;;;;;;3.03;2.33;;;;;;;-144.22;100.00;60274.75;6216994;28;20236;-42
2022/11/10 12:29:02;;;;;;;3.67;2.90;;;;;;;-144.22;100.00;60274.75;6216498;28;20224;-42
2022/11/10 12:32:32;;;;;;;3.10;2.67;;;;;;;-144.22;100.00;60274.75;6217911;28;20236;-42
2022/11/10 12:35:55;;;;;;;4.00;2.60;;;;;;;-144.22;100.00;60274.75;6216375;28;20232;-44
2022/11/10 12:39:23;;;;;;;3.87;3.03;;;;;;;-144.22;100.00;60274.75;6216060;28;20587;-43
2022/11/10 12:42:51;;;;;;;5.57;3.17;;;;;;;-144.22;100.00;60274.75;6215648;28;20231;-43
2022/11/10 12:46:12;;;;;;;3.90;2.93;;;;;;;-144.22;100.00;60274.75;6216963;28;20236;-42
2022/11/10 12:49:40;;;;;;;3.80;3.37;;;;;;;-144.22;100.00;60274.75;6237902;28;20706;-42
2022/11/10 12:53:25;;;;;;;3.73;2.87;;;;;;;-144.22;100.00;60274.75;6269045;28;20264;-43
2022/11/10 12:57:02;;;;;;;4.53;3.00;;;;;;;-144.22;100.00;60274.75;6265181;28;20231;-42
2022/11/10 13:00:26;;;;;;;3.10;2.80;;;;;;;-144.22;100.00;60274.75;6262722;28;20231;-42
2022/11/10 13:03:57;;;;;;;4.63;3.37;;;;;;;-144.22;100.00;60274.75;6264918;28;20714;-43
2022/11/10 13:07:23;;;;;;;5.00;3.73;;;;;;;-144.22;100.00;60274.75;6263950;28;20226;-43
2022/11/10 13:10:54;;;;;;;6.57;3.10;;;;;;;-144.22;100.00;60274.75;6264482;28;20238;-42
2022/11/10 13:14:27;;;;;;;4.53;3.33;;;;;;;-144.22;100.00;60274.75;6263846;28;20230;-42
2022/11/10 13:17:48;;;;;;;4.20;3.00;;;;;;;-144.22;100.00;60274.75;6265707;28;20234;-42
2022/11/10 13:21:09;;;;;;;4.20;2.77;;;;;;;-144.22;100.00;60274.75;6263953;28;20222;-42
2022/11/10 13:24:36;;;;;;;2.93;2.40;;;;;;;-144.22;100.00;60274.75;6271974;28;20227;-42
2022/11/10 13:27:57;;;;;;;2.93;2.10;;;;;;;-144.22;100.00;60274.75;6269331;28;20246;-43
2022/11/10 13:31:26;;;;;;;3.60;2.40;;;;;;;-144.22;100.00;60274.75;6268691;28;20227;-42
2022/11/10 13:34:46;;;;;;;2.87;2.23;;;;;;;-144.22;100.00;60274.75;6268331;28;20234;-42
2022/11/10 13:38:32;;;;;;;2.40;2.17;;;;;;;-144.22;100.00;60274.75;6268754;28;20326;-42
2022/11/10 13:42:00;;;;;;;2.10;1.70;;;;;;;-144.22;100.00;60274.75;6268195;28;20237;-42
2022/11/10 13:45:29;;;;;;;2.43;2.17;;;;;;;-144.22;100.00;60274.75;6269372;28;20227;-42
2022/11/10 13:48:58;;;;;;;3.00;1.87;;;;;;;-144.22;100.00;60274.75;6267572;28;20234;-42
2022/11/10 13:53:03;;;;;;;3.53;2.70;;;;;;;-144.22;100.00;60274.75;6270273;28;20238;-42
2022/11/10 13:56:37;;;;;;;4.17;2.17;;;;;;;-144.22;100.00;60274.75;6273282;28;20230;-43
2022/11/10 14:00:01;;;;;;;3.27;2.40;;;;;;;-144.22;100.00;60274.75;6269211;28;20263;-42
2022/11/10 14:03:45;;;;;;;2.80;2.00;;;;;;;-144.22;100.00;60274.75;6267173;28;20671;-42
2022/11/10 14:07:17;;;;;;;3.60;2.43;;;;;;;-144.22;100.00;60274.75;6268892;28;20785;-42
2022/11/10 14:10:54;;;;;;;3.40;2.70;;;;;;;-144.22;100.00;60274.75;6267747;28;20273;-42
2022/11/10 14:14:32;;;;;;;4.03;2.53;;;;;;;-144.22;100.00;60274.75;6268787;28;20231;-42
2022/11/10 14:17:55;;;;;;;3.63;2.63;;;;;;;-144.22;100.00;60274.75;6267672;28;20263;-42
2022/11/10 14:21:28;;;;;;;3.03;2.30;;;;;;;-144.22;100.00;60274.75;6272137;28;20234;-42
2022/11/10 14:25:00;;;;;;;4.90;1.80;;;;;;;-144.22;100.00;60274.75;6275496;28;20250;-42
2022/11/10 14:28:27;;;;;;;4.67;2.40;;;;;;;-144.22;100.00;60274.75;6270733;28;20268;-42
2022/11/10 14:31:48;;;;;;;2.97;2.10;;;;;;;-144.22;100.00;60274.75;6268306;28;20713;-42
2022/11/10 14:35:21;;;;;;;3.37;2.03;;;;;;;-144.22;100.00;60274.75;6268871;28;20240;-42
2022/11/10 14:38:44;;;;;;;2.30;1.47;;;;;;;-144.22;100.00;60274.75;6268189;28;20222;-43
2022/11/10 14:42:05;;;;;;;1.83;1.70;;;;;;;-144.22;100.00;60274.75;6270073;28;20263;-44
2022/11/10 14:45:27;;;;;;;3.47;2.03;;;;;;;-144.22;100.00;60274.75;6256103;28;20645;-42
2022/11/10 14:48:55;;;;;;;3.57;1.40;;;;;;;-144.22;100.00;60274.75;6268571;28;20704;-42
2022/11/10 14:52:16;;;;;;;1.93;1.47;;;;;;;-144.22;100.00;60274.75;6267841;28;20258;-43
2022/11/10 14:55:43;;;;;;;3.63;1.93;;;;;;;-144.22;100.00;60274.75;6271845;28;20242;-42
2022/11/10 14:59:06;;;;;;;4.27;1.73;;;;;;;-144.22;100.00;60274.75;6267686;28;20241;-42
2022/11/10 15:02:27;;;;;;;3.60;1.90;;;;;;;-144.22;100.00;60274.75;6271451;28;20235;-42
2022/11/10 15:05:48;;;;;;;2.37;1.93;;;;;;;-144.22;100.00;60274.75;6266423;28;20240;-42
2022/11/10 15:09:22;;;;;;;5.37;2.73;;;;;;;-144.22;100.00;60274.75;6265692;28;20225;-42
2022/11/10 15:12:56;;;;;;;3.53;2.50;;;;;;;-144.22;100.00;60274.75;6267322;28;20713;-43
2022/11/10 15:16:38;;;;;;;9.03;5.70;;;;;;;-144.22;100.00;60274.75;6268298;28;20246;-42
2022/11/10 15:19:59;;;;;;;3.87;2.57;;;;;;;-144.22;100.00;60274.75;6266753;28;20228;-42
2022/11/10 15:23:29;;;;;;;3.40;2.67;;;;;;;-144.22;100.00;60274.75;6272076;28;20643;-42
2022/11/10 15:26:53;;;;;;;2.77;2.17;;;;;;;-144.22;100.00;60274.75;6266379;28;20243;-41
2022/11/10 15:30:22;;;;;;;4.03;2.63;;;;;;;-144.22;100.00;60274.75;6269489;28;20698;-42
2022/11/10 15:33:49;;;;;;;4.57;2.13;;;;;;;-144.22;100.00;60274.75;6251468;28;20239;-42
2022/11/10 15:37:19;;;;;;;3.63;2.37;;;;;;;-144.22;100.00;60274.75;6267107;28;20230;-42
2022/11/10 15:40:47;;;;;;;5.50;2.40;;;;;;;-144.22;100.00;60274.75;6269927;28;20231;-42
2022/11/10 15:44:24;;;;;;;4.13;2.30;;;;;;;-144.22;100.00;60274.75;6267425;28;20307;-43
2022/11/10 15:47:45;;;;;;;4.73;2.33;;;;;;;-144.22;100.00;60274.75;6269545;28;20228;-42
2022/11/10 15:51:09;;;;;;;3.13;2.00;;;;;;;-144.22;100.00;60274.75;6265473;28;20698;-42